Time;durP1;ratioP1;P1;durP2;ratioP2;P2;SDS_P1;SDS_P2;PMS_P1;PMS_P2;Temp;Humidity;BMP_temperature;BMP_pressure;BME280_temperature;BME280_humidity;BME280_pressure;Samples;Min_cycle;Max_cycle;Signal;HPM_P1;HPM_P2
2022/06/28 00:01:19;;;;;;;5.10;2.40;;;;;;;29.78;57.55;100823.09;5080842;28;70210;-36
2022/06/28 00:03:49;;;;;;;6.32;2.97;;;;;;;29.84;58.61;100817.66;5076332;28;66955;-41
2022/06/28 00:06:20;;;;;;;10.25;3.50;;;;;;;29.83;61.75;100805.19;5074130;28;69875;-40
2022/06/28 00:08:51;;;;;;;10.10;3.63;;;;;;;29.91;62.98;100811.41;5079156;28;66726;-40
2022/06/28 00:11:22;;;;;;;7.00;3.78;;;;;;;29.96;64.01;100814.28;5076292;28;69508;-40
2022/06/28 00:13:53;;;;;;;15.93;4.03;;;;;;;29.93;65.08;100809.31;5077447;28;67726;-38
2022/06/28 00:16:24;;;;;;;11.88;4.63;;;;;;;30.03;65.75;100821.34;5074603;28;69907;-39
2022/06/28 00:18:55;;;;;;;14.45;5.47;;;;;;;30.06;66.41;100823.59;5074941;28;67008;-39
2022/06/28 00:21:26;;;;;;;10.18;4.28;;;;;;;30.00;66.74;100818.22;5062259;28;70438;-36
2022/06/28 00:23:57;;;;;;;6.22;3.85;;;;;;;29.80;67.40;100821.84;5074695;28;66451;-37
2022/06/28 00:26:28;;;;;;;4.20;3.75;;;;;;;29.66;67.51;100819.41;5072829;28;69562;-38
2022/06/28 00:28:59;;;;;;;5.68;3.67;;;;;;;29.52;68.03;100818.59;5042450;28;67036;-37
2022/06/28 00:31:30;;;;;;;3.90;3.20;;;;;;;29.74;64.63;100828.09;5078461;27;70551;-39
2022/06/28 00:34:03;;;;;;;4.05;3.65;;;;;;;29.78;64.12;100807.72;5056131;28;65864;-38
2022/06/28 00:36:35;;;;;;;4.07;3.50;;;;;;;29.95;63.80;100829.69;5080503;28;69938;-39
2022/06/28 00:39:05;;;;;;;4.03;3.63;;;;;;;30.05;63.43;100834.63;5060833;28;66025;-38
2022/06/28 00:41:37;;;;;;;4.38;3.80;;;;;;;30.06;63.70;100830.84;5082603;28;70251;-38
2022/06/28 00:44:11;;;;;;;5.47;4.65;;;;;;;29.88;63.61;100782.09;5082146;28;66219;-38
2022/06/28 00:46:42;;;;;;;12.25;5.30;;;;;;;30.26;63.31;100831.63;5077937;28;69276;-37
2022/06/28 00:49:13;;;;;;;23.02;14.05;;;;;;;30.33;63.41;100836.16;5079041;28;66958;-39
2022/06/28 00:51:44;;;;;;;17.95;12.60;;;;;;;30.38;62.60;100845.28;5077968;28;69810;-38
2022/06/28 00:54:15;;;;;;;27.15;18.83;;;;;;;30.43;62.56;100847.34;5078771;28;66403;-39
2022/06/28 00:56:46;;;;;;;65.13;49.78;;;;;;;30.41;62.93;100817.78;5072678;28;70275;-38
2022/06/28 00:59:17;;;;;;;86.25;75.50;;;;;;;30.49;62.89;100828.34;5080531;28;66281;-36
2022/06/28 01:01:48;;;;;;;180.73;162.43;;;;;;;30.47;62.71;100805.25;5077996;28;70613;-35
2022/06/28 01:04:19;;;;;;;236.98;213.70;;;;;;;30.54;63.00;100800.63;5053096;28;66395;-35
2022/06/28 01:06:50;;;;;;;257.48;232.60;;;;;;;30.56;62.78;100798.50;5078171;27;71485;-36
2022/06/28 01:09:21;;;;;;;276.88;250.77;;;;;;;30.58;62.46;100796.44;5062009;28;64329;-35
2022/06/28 01:11:52;;;;;;;337.83;305.65;;;;;;;30.57;62.81;100789.38;5074749;28;69884;-36
2022/06/28 01:14:24;;;;;;;388.07;350.67;;;;;;;30.59;62.44;100784.56;5061928;28;66703;-35
2022/06/28 01:17:18;;;;;;;401.63;363.27;;;;;;;30.59;62.36;100776.44;5079508;28;70404;-35
2022/06/28 01:19:57;;;;;;;401.30;362.42;;;;;;;30.62;62.07;100776.00;5060411;28;66446;-35
2022/06/28 01:23:01;;;;;;;424.40;382.45;;;;;;;30.64;62.47;100792.00;5051016;28;69909;-35
2022/06/28 01:25:32;;;;;;;407.10;366.83;;;;;;;30.63;62.13;100785.75;5077034;28;66727;-35
2022/06/28 01:28:06;;;;;;;427.83;385.20;;;;;;;30.57;62.03;100781.25;5061937;28;69963;-34
2022/06/28 01:30:38;;;;;;;409.40;369.00;;;;;;;30.67;62.28;100783.44;5060075;28;66728;-35
2022/06/28 01:33:15;;;;;;;391.13;352.25;;;;;;;30.60;61.74;100778.09;5037289;28;70156;-35
2022/06/28 01:35:46;;;;;;;373.58;336.73;;;;;;;30.67;62.33;100794.28;5059814;28;66138;-35
2022/06/28 01:38:20;;;;;;;357.80;322.33;;;;;;;30.68;62.12;100807.59;5052526;28;69508;-35
2022/06/28 01:40:51;;;;;;;363.80;328.83;;;;;;;30.68;62.36;100821.13;5073650;28;66263;-35
2022/06/28 01:43:23;;;;;;;326.63;294.65;;;;;;;30.70;61.65;100821.75;5074972;28;70201;-36
2022/06/28 01:45:55;;;;;;;302.70;272.77;;;;;;;30.71;61.86;100834.22;5060232;28;66129;-35
2022/06/28 01:48:26;;;;;;;285.20;257.27;;;;;;;30.72;61.66;100833.16;5076542;28;69983;-35
2022/06/28 01:51:03;;;;;;;273.33;245.85;;;;;;;30.72;62.22;100841.28;5052513;28;66534;-35
2022/06/28 01:53:35;;;;;;;258.77;233.10;;;;;;;30.70;61.94;100832.59;5060162;28;69598;-35
2022/06/28 01:56:32;;;;;;;245.50;221.30;;;;;;;30.62;61.66;100824.72;5059498;28;66365;-35
2022/06/28 01:59:25;;;;;;;229.18;206.07;;;;;;;30.73;62.04;100840.25;5076210;28;70428;-35
2022/06/28 02:02:11;;;;;;;209.82;189.15;;;;;;;30.66;61.76;100833.22;5053023;28;65244;-36
2022/06/28 02:05:03;;;;;;;197.98;177.77;;;;;;;30.75;61.97;100842.72;5057084;28;69304;-34
2022/06/28 02:07:35;;;;;;;184.98;165.75;;;;;;;30.77;61.27;100851.47;5059027;28;66169;-36
2022/06/28 02:10:07;;;;;;;181.97;163.53;;;;;;;30.75;61.23;100847.31;5057786;28;69837;-34
2022/06/28 02:12:38;;;;;;;168.37;150.63;;;;;;;30.77;61.79;100853.34;5059615;28;65826;-35
2022/06/28 02:15:10;;;;;;;159.95;143.38;;;;;;;30.67;61.41;100843.84;5058501;28;69936;-36
2022/06/28 02:17:42;;;;;;;153.15;137.98;;;;;;;30.77;61.64;100862.31;5058450;28;67033;-35
2022/06/28 02:20:14;;;;;;;152.57;137.23;;;;;;;30.68;61.28;100845.50;5057360;28;70391;-35
2022/06/28 02:22:45;;;;;;;;;;;;;;;30.43;62.74;100866.31;5047235;28;66141;-35
2022/06/28 02:25:17;;;;;;;125.75;112.90;;;;;;;30.77;61.16;100859.59;5052555;28;70487;-36
2022/06/28 02:27:48;;;;;;;125.20;112.18;;;;;;;30.79;61.40;100862.94;5077331;28;65987;-35
2022/06/28 02:30:21;;;;;;;127.43;114.55;;;;;;;30.75;61.04;100847.31;5062937;28;69995;-36
2022/06/28 02:32:53;;;;;;;119.30;107.28;;;;;;;30.82;61.44;100853.56;5068417;28;66370;-35
2022/06/28 02:41:05;;;;;;;106.28;95.18;;;;;;;30.88;61.40;100845.38;5051108;28;69482;-35
2022/06/28 02:43:37;;;;;;;100.43;89.72;;;;;;;30.92;61.32;100840.34;5046439;28;66190;-34
2022/06/28 02:46:08;;;;;;;100.32;89.88;;;;;;;30.87;61.06;100832.03;5063206;28;69959;-36
2022/06/28 02:48:39;;;;;;;92.30;82.40;;;;;;;30.91;61.05;100838.69;5053450;28;65883;-35
2022/06/28 02:51:10;;;;;;;90.50;81.05;;;;;;;30.95;60.91;100834.47;5071270;28;69815;-36
2022/06/28 02:53:42;;;;;;;81.10;72.30;;;;;;;30.86;61.00;100808.72;5069879;28;64765;-36
2022/06/28 02:56:13;;;;;;;79.32;70.68;;;;;;;30.95;60.61;100823.63;5043103;28;69247;-36
2022/06/28 02:58:44;;;;;;;75.45;67.07;;;;;;;30.95;61.34;100812.78;5065018;28;66140;-35
2022/06/28 03:01:16;;;;;;;;;;;;;;;30.63;62.04;100810.13;5048615;28;70476;-35
2022/06/28 03:03:47;;;;;;;66.45;59.58;;;;;;;30.97;61.36;100810.72;5067346;28;66929;-34
2022/06/28 03:06:20;;;;;;;64.20;57.70;;;;;;;31.01;61.03;100806.50;5049290;28;44164;-35
2022/06/28 03:08:51;;;;;;;60.88;54.60;;;;;;;31.01;60.76;100806.50;5068474;28;66440;-35
2022/06/28 03:11:22;;;;;;;57.92;51.78;;;;;;;31.04;60.92;100803.34;5066856;28;70205;-34
2022/06/28 03:13:54;;;;;;;54.70;48.97;;;;;;;31.05;60.61;100802.28;5059658;28;66217;-34
2022/06/28 03:16:25;;;;;;;55.90;49.83;;;;;;;31.05;61.01;100785.22;5078085;28;70841;-37
2022/06/28 03:18:56;;;;;;;53.63;48.13;;;;;;;31.08;61.18;100779.34;5050315;28;65281;-36
2022/06/28 03:21:27;;;;;;;49.33;44.03;;;;;;;31.10;60.70;100782.66;5056214;28;70910;-35
2022/06/28 03:23:58;;;;;;;47.70;42.50;;;;;;;31.13;60.56;100774.09;5055397;28;65695;-36
2022/06/28 03:26:29;;;;;;;40.33;36.17;;;;;;;31.14;60.79;100768.44;5053373;28;70220;-35
2022/06/28 03:29:00;;;;;;;39.55;35.63;;;;;;;31.19;60.52;100769.66;5070724;28;65342;-36
2022/06/28 03:31:31;;;;;;;37.17;33.55;;;;;;;31.23;60.47;100768.13;5047687;28;71349;-35
2022/06/28 03:34:02;;;;;;;38.53;34.53;;;;;;;31.22;60.54;100767.31;5027751;28;66538;-36
2022/06/28 03:36:34;;;;;;;;;;;;;;;30.91;61.42;100765.56;5066744;28;69923;-34
2022/06/28 03:39:24;;;;;;;31.70;28.80;;;;;;;31.16;60.66;100750.06;5062324;28;66906;-35
2022/06/28 03:41:56;;;;;;;32.83;29.48;;;;;;;31.19;60.44;100748.78;5049057;28;70269;-40
2022/06/28 03:44:28;;;;;;;30.60;27.75;;;;;;;31.33;60.17;100760.31;5057780;28;65646;-35
2022/06/28 03:47:02;;;;;;;30.02;27.27;;;;;;;31.34;60.57;100761.97;5049915;28;70922;-36
2022/06/28 03:50:09;;;;;;;28.60;25.27;;;;;;;31.41;60.49;100764.63;5011825;28;65447;-35
2022/06/28 03:53:00;;;;;;;27.70;24.63;;;;;;;31.43;60.27;100757.94;5051434;28;70485;-36
2022/06/28 03:56:07;;;;;;;24.08;22.08;;;;;;;31.49;60.58;100750.78;5049124;28;66576;-35
2022/06/28 03:58:38;;;;;;;24.10;21.90;;;;;;;31.50;60.07;100750.53;5068044;28;70527;-36
2022/06/28 04:01:10;;;;;;;23.27;21.13;;;;;;;31.45;60.19;100728.69;5048217;28;65988;-36
2022/06/28 04:03:41;;;;;;;23.27;21.27;;;;;;;31.55;59.78;100742.56;5039795;28;69429;-36
2022/06/28 04:06:13;;;;;;;23.33;21.33;;;;;;;31.59;59.67;100742.91;5050039;28;66395;-36
2022/06/28 04:08:45;;;;;;;20.67;19.20;;;;;;;31.63;59.93;100733.28;5044615;28;69567;-38
2022/06/28 04:11:16;;;;;;;21.58;19.73;;;;;;;31.61;59.93;100728.06;5051197;28;67493;-35
2022/06/28 04:13:51;;;;;;;20.30;18.38;;;;;;;31.54;59.73;100702.13;5054647;28;70237;-36
2022/06/28 04:16:23;;;;;;;19.80;18.13;;;;;;;31.74;59.73;100734.41;5064978;28;66243;-36
2022/06/28 04:18:59;;;;;;;18.52;17.27;;;;;;;31.76;59.75;100729.53;5050653;28;69697;-36
2022/06/28 04:21:32;;;;;;;19.17;17.70;;;;;;;31.61;59.62;100703.66;5050037;28;65405;-35
2022/06/28 04:24:13;;;;;;;17.08;15.82;;;;;;;31.74;59.65;100718.94;5050483;28;70565;-35
2022/06/28 04:27:10;;;;;;;17.35;16.02;;;;;;;31.82;59.77;100721.34;5041127;28;66583;-37
2022/06/28 04:29:42;;;;;;;16.70;15.60;;;;;;;31.86;59.59;100721.69;5067147;28;69222;-36
2022/06/28 04:32:32;;;;;;;17.20;15.52;;;;;;;31.90;59.72;100714.75;5061851;28;66013;-36
2022/06/28 04:35:06;;;;;;;16.75;15.45;;;;;;;31.93;59.55;100706.19;5049388;28;69991;-38
2022/06/28 04:37:39;;;;;;;15.25;14.32;;;;;;;31.94;59.30;100702.41;5057962;28;65528;-38
2022/06/28 04:40:21;;;;;;;14.43;13.43;;;;;;;31.98;59.46;100681.91;5073294;28;69742;-35
2022/06/28 04:43:06;;;;;;;14.18;13.15;;;;;;;32.02;59.55;100680.38;5063244;28;66591;-36
2022/06/28 04:45:37;;;;;;;14.50;13.60;;;;;;;32.03;59.56;100673.88;5062740;28;71269;-36
2022/06/28 04:48:12;;;;;;;14.10;12.85;;;;;;;32.04;59.60;100659.25;5064260;28;66077;-36
2022/06/28 04:50:44;;;;;;;13.45;12.45;;;;;;;32.09;59.13;100652.28;5057176;28;70287;-36
2022/06/28 04:53:18;;;;;;;12.38;11.63;;;;;;;31.99;59.35;100632.00;5063541;28;66051;-36
2022/06/28 04:55:53;;;;;;;12.50;11.80;;;;;;;32.15;59.02;100654.91;5063310;28;70322;-35
2022/06/28 04:58:24;;;;;;;13.38;12.38;;;;;;;32.17;59.28;100646.53;5062024;28;66209;-37
2022/06/28 05:00:55;;;;;;;12.47;11.67;;;;;;;32.18;59.13;100640.03;5061469;28;70091;-36
2022/06/28 05:03:45;;;;;;;12.85;11.82;;;;;;;32.21;59.06;100623.31;5058986;28;64790;-35
2022/06/28 05:06:19;;;;;;;12.57;11.77;;;;;;;32.22;58.73;100617.63;5080497;28;70203;-36
2022/06/28 05:08:59;;;;;;;11.90;11.20;;;;;;;32.23;58.93;100610.28;5054636;28;66340;-35
2022/06/28 05:11:52;;;;;;;11.85;10.95;;;;;;;32.28;58.87;100610.41;5068086;28;70499;-34
2022/06/28 05:14:30;;;;;;;11.63;10.73;;;;;;;32.31;59.01;100596.38;5061318;28;65502;-35
2022/06/28 05:17:01;;;;;;;11.43;10.73;;;;;;;32.32;58.74;100595.31;5081565;28;69069;-35
2022/06/28 05:19:33;;;;;;;;;;;;;;;32.02;59.55;100595.44;5068969;28;65637;-36
2022/06/28 05:22:08;;;;;;;10.88;10.18;;;;;;;32.34;58.85;100581.50;5054142;28;69681;-36
2022/06/28 05:24:58;;;;;;;10.30;9.57;;;;;;;32.39;58.51;100568.88;5044718;28;65324;-37
2022/06/28 05:27:29;;;;;;;10.95;10.25;;;;;;;32.35;58.80;100556.84;5074325;28;69938;-36
2022/06/28 05:30:00;;;;;;;9.88;9.07;;;;;;;32.30;58.58;100543.16;5057700;28;66516;-36
2022/06/28 05:32:32;;;;;;;10.02;9.32;;;;;;;32.47;58.63;100568.53;5057888;28;70230;-36
2022/06/28 05:35:03;;;;;;;10.77;9.70;;;;;;;32.44;58.77;100549.97;5059282;28;66049;-36
2022/06/28 05:37:34;;;;;;;;;;;;;;;32.21;59.27;100560.88;5059326;28;70240;-36
2022/06/28 05:40:05;;;;;;;9.25;8.65;;;;;;;32.54;58.60;100562.13;5059264;28;67296;-36
2022/06/28 05:42:36;;;;;;;10.32;9.45;;;;;;;32.58;58.74;100561.44;5054375;28;69014;-36
2022/06/28 05:45:08;;;;;;;9.32;8.70;;;;;;;32.55;58.60;100542.91;5060324;28;66190;-35
2022/06/28 05:47:39;;;;;;;9.07;8.57;;;;;;;32.63;58.33;100547.97;5076321;28;69447;-36
2022/06/28 05:50:09;;;;;;;9.35;8.75;;;;;;;32.67;58.28;100537.44;5079212;28;66138;-36
2022/06/28 05:52:40;;;;;;;9.98;9.30;;;;;;;32.69;58.58;100543.47;5055986;28;70528;-36
2022/06/28 05:55:12;;;;;;;8.90;8.00;;;;;;;32.72;58.39;100529.41;5060591;28;65538;-36
2022/06/28 05:57:43;;;;;;;8.40;7.83;;;;;;;32.72;58.37;100521.25;5059957;28;69406;-36
2022/06/28 06:00:15;;;;;;;8.27;7.83;;;;;;;32.78;58.19;100519.47;5054295;28;65983;-36
2022/06/28 06:02:45;;;;;;;;;;;;;;;32.47;58.88;100511.53;5050828;28;70116;-35
2022/06/28 06:05:17;;;;;;;8.15;7.65;;;;;;;32.82;58.41;100513.31;5074635;28;66348;-35
2022/06/28 06:07:48;;;;;;;8.15;7.55;;;;;;;32.87;58.29;100516.09;5059519;28;69920;-36
2022/06/28 06:10:20;;;;;;;7.32;7.03;;;;;;;32.88;58.26;100506.09;5056313;28;65604;-35
2022/06/28 06:12:51;;;;;;;8.00;7.50;;;;;;;32.91;58.25;100497.44;5075198;28;70066;-36
2022/06/28 06:15:22;;;;;;;8.80;8.10;;;;;;;32.88;58.27;100479.75;5082413;28;65673;-36
2022/06/28 06:17:53;;;;;;;8.35;7.75;;;;;;;32.97;58.14;100480.16;5067615;28;70608;-36
2022/06/28 06:20:26;;;;;;;8.40;7.63;;;;;;;32.96;57.86;100469.53;5055707;28;67073;-36
2022/06/28 06:22:57;;;;;;;7.35;6.75;;;;;;;33.01;58.21;100472.38;5056399;28;68986;-36
2022/06/28 06:25:47;;;;;;;7.72;7.13;;;;;;;32.93;57.95;100449.94;5066369;28;65930;-35
2022/06/28 06:28:18;;;;;;;8.20;7.70;;;;;;;32.98;57.91;100448.38;5072814;28;70282;-35
2022/06/28 06:30:49;;;;;;;7.47;6.97;;;;;;;33.02;58.34;100455.84;5062837;28;65788;-36
2022/06/28 06:33:39;;;;;;;7.93;7.22;;;;;;;33.06;58.09;100448.00;5063365;28;69397;-35
2022/06/28 06:36:31;;;;;;;9.02;8.02;;;;;;;33.05;58.09;100443.66;5053979;28;64862;-37
2022/06/28 06:39:04;;;;;;;8.15;7.53;;;;;;;32.93;58.06;100411.06;5040717;28;68823;-36
2022/06/28 06:41:35;;;;;;;8.45;7.78;;;;;;;33.09;57.95;100431.22;5060325;28;67264;-36
2022/06/28 06:44:06;;;;;;;9.02;8.07;;;;;;;33.06;58.05;100410.78;5075194;28;70750;-36
2022/06/28 06:46:38;;;;;;;7.90;6.72;;;;;;;33.11;57.92;100424.47;5060944;28;66136;-36
2022/06/28 06:49:09;;;;;;;8.15;7.45;;;;;;;33.11;58.11;100401.91;5070807;28;70586;-35
2022/06/28 06:51:44;;;;;;;8.07;7.40;;;;;;;33.17;57.98;100411.78;5053843;28;65861;-37
2022/06/28 06:54:16;;;;;;;8.32;7.72;;;;;;;32.87;57.91;100353.09;5062682;28;69716;-37
2022/06/28 06:56:47;;;;;;;;;;;;;;;32.92;58.74;100404.00;5048639;28;66368;-36
2022/06/28 06:59:18;;;;;;;8.45;7.63;;;;;;;33.27;58.12;100394.81;5080143;28;69131;-37
2022/06/28 07:01:49;;;;;;;7.90;7.40;;;;;;;33.30;58.00;100389.69;5074004;28;65979;-37
2022/06/28 07:04:27;;;;;;;8.30;7.70;;;;;;;33.33;57.67;100378.31;5046202;28;70402;-36
2022/06/28 07:07:02;;;;;;;8.93;7.95;;;;;;;33.40;57.75;100366.44;5050558;28;65730;-36
2022/06/28 07:09:33;;;;;;;10.38;7.45;;;;;;;33.43;57.88;100371.38;5049293;28;71067;-36
2022/06/28 07:12:05;;;;;;;8.10;7.30;;;;;;;33.46;57.57;100368.16;5054340;28;65390;-37
2022/06/28 07:14:36;;;;;;;7.78;7.18;;;;;;;33.50;57.54;100364.72;5073316;28;70010;-35
2022/06/28 07:17:08;;;;;;;7.97;7.38;;;;;;;33.51;57.56;100360.91;5069705;28;66224;-36
2022/06/28 07:19:39;;;;;;;7.43;6.93;;;;;;;33.53;57.76;100355.25;5050399;28;70046;-37
2022/06/28 07:22:10;;;;;;;7.60;7.17;;;;;;;33.46;57.45;100332.81;5068743;28;66511;-35
2022/06/28 07:24:44;;;;;;;8.00;7.40;;;;;;;33.61;57.34;100357.53;5049615;28;69238;-36
2022/06/28 07:27:15;;;;;;;8.45;7.65;;;;;;;33.62;57.35;100342.84;5049566;28;66383;-35
2022/06/28 07:29:46;;;;;;;8.20;7.60;;;;;;;33.63;57.61;100343.69;5059632;28;68981;-36
2022/06/28 07:32:17;;;;;;;7.72;7.28;;;;;;;33.65;57.38;100336.91;5080717;28;66630;-36
2022/06/28 07:34:48;;;;;;;9.02;8.35;;;;;;;33.67;57.36;100337.50;5079906;28;70343;-36
2022/06/28 07:37:20;;;;;;;8.32;7.72;;;;;;;33.61;57.29;100324.91;5053485;28;65272;-39
2022/06/28 07:39:59;;;;;;;8.35;7.70;;;;;;;33.69;57.33;100332.63;5062290;28;70037;-37
2022/06/28 07:42:36;;;;;;;7.50;6.95;;;;;;;33.67;57.42;100318.44;5073242;28;65719;-37
2022/06/28 07:45:36;;;;;;;7.97;7.38;;;;;;;33.75;57.40;100320.72;5065690;28;69978;-37
2022/06/28 07:48:12;;;;;;;7.47;6.93;;;;;;;33.74;56.96;100324.53;5059018;28;66266;-36
2022/06/28 07:53:34;;;;;;;7.65;7.15;;;;;;;33.71;57.45;100291.56;5075827;27;65598;-37
2022/06/28 07:56:34;;;;;;;8.45;7.75;;;;;;;33.83;57.35;100299.63;4970720;28;69934;-35
2022/06/28 07:59:05;;;;;;;15.52;8.07;;;;;;;33.82;57.12;100290.59;5060992;28;65607;-40
2022/06/28 08:01:40;;;;;;;9.07;8.02;;;;;;;33.85;57.13;100278.38;5040838;28;69941;-37
2022/06/28 08:04:22;;;;;;;7.78;7.28;;;;;;;33.86;57.36;100282.78;5041217;28;67183;-37
2022/06/28 08:06:58;;;;;;;8.20;7.60;;;;;;;33.88;57.33;100270.56;5038688;28;70110;-38
2022/06/28 08:09:31;;;;;;;7.53;7.07;;;;;;;33.90;57.38;100278.44;5056003;28;66238;-36
2022/06/28 08:12:06;;;;;;;10.15;7.25;;;;;;;33.80;57.30;100252.78;5047990;28;69849;-35
2022/06/28 08:14:37;;;;;;;7.45;6.80;;;;;;;33.90;57.32;100256.69;5069863;28;65947;-35
2022/06/28 08:17:09;;;;;;;8.15;7.40;;;;;;;33.91;57.59;100263.78;5054433;28;70132;-37
2022/06/28 08:19:41;;;;;;;7.53;6.83;;;;;;;33.87;57.42;100252.56;5062368;28;66354;-36
2022/06/28 08:22:12;;;;;;;7.10;6.60;;;;;;;33.95;57.39;100248.59;5050734;28;69323;-35
2022/06/28 08:24:43;;;;;;;8.70;7.20;;;;;;;33.95;57.23;100248.59;5058685;27;66560;-35
2022/06/28 08:27:15;;;;;;;12.05;7.05;;;;;;;33.95;57.43;100243.13;5058306;28;70385;-36
2022/06/28 08:29:47;;;;;;;6.90;6.47;;;;;;;33.91;57.63;100225.69;5064808;28;65725;-37
2022/06/28 08:32:20;;;;;;;7.13;6.53;;;;;;;33.99;57.42;100236.09;5077821;28;70109;-36
2022/06/28 08:34:51;;;;;;;6.95;6.35;;;;;;;33.92;57.40;100227.34;5050737;28;65410;-37
2022/06/28 08:37:22;;;;;;;7.93;6.60;;;;;;;34.00;57.18;100245.91;5073121;28;70413;-36
2022/06/28 08:39:53;;;;;;;6.73;6.13;;;;;;;33.95;57.68;100226.81;5070550;28;67085;-36
2022/06/28 08:42:30;;;;;;;7.28;6.63;;;;;;;34.01;57.59;100239.38;5081177;28;69083;-35
2022/06/28 08:45:03;;;;;;;7.40;6.05;;;;;;;34.03;57.39;100240.78;5065414;28;66281;-36
2022/06/28 08:47:36;;;;;;;6.80;6.30;;;;;;;34.05;57.31;100243.28;5070174;28;69221;-37
2022/06/28 08:50:37;;;;;;;7.30;6.60;;;;;;;34.02;57.64;100241.06;5075849;28;64934;-36
2022/06/28 08:53:10;;;;;;;7.85;6.07;;;;;;;33.67;57.82;100179.75;5070929;28;70548;-36
2022/06/28 08:55:41;;;;;;;5.65;5.35;;;;;;;34.06;57.84;100235.94;5073876;28;66810;-37
2022/06/28 08:58:12;;;;;;;6.80;6.30;;;;;;;34.06;57.50;100231.31;5068054;28;70720;-38
2022/06/28 09:00:43;;;;;;;9.20;6.43;;;;;;;34.06;57.54;100244.91;5072275;28;65935;-36
2022/06/28 09:03:15;;;;;;;13.27;6.18;;;;;;;34.01;57.69;100236.66;5065569;28;69581;-35
2022/06/28 09:05:46;;;;;;;6.55;6.05;;;;;;;34.08;57.71;100234.59;5047958;28;66113;-35
2022/06/28 09:08:17;;;;;;;6.28;5.70;;;;;;;33.99;57.68;100217.91;5066215;28;70064;-36
2022/06/28 09:10:49;;;;;;;;;;;;;;;33.77;58.58;100228.81;5060814;28;66495;-36
2022/06/28 09:13:21;;;;;;;6.28;5.75;;;;;;;34.04;57.84;100217.09;5053643;28;69751;-38
2022/06/28 09:15:56;;;;;;;;;;;;;;;33.75;58.68;100222.81;5057348;28;66458;-36
2022/06/28 09:18:42;;;;;;;6.55;5.53;;;;;;;33.98;57.87;100216.22;5077617;28;69321;-36
2022/06/28 09:21:19;;;;;;;9.77;5.80;;;;;;;34.09;57.92;100216.38;5079152;28;66206;-36
2022/06/28 09:23:52;;;;;;;5.43;5.13;;;;;;;34.08;57.83;100221.00;5060344;28;70063;-36
2022/06/28 09:26:23;;;;;;;6.65;5.38;;;;;;;34.09;57.86;100219.09;5064443;28;65765;-36
2022/06/28 09:28:54;;;;;;;6.27;5.70;;;;;;;34.00;58.36;100207.81;5067498;28;71016;-37
2022/06/28 09:31:27;;;;;;;5.93;5.53;;;;;;;34.09;58.13;100221.81;5069071;28;65378;-36
2022/06/28 09:34:02;;;;;;;5.30;4.90;;;;;;;34.12;58.19;100222.09;5069261;28;70090;-36
2022/06/28 09:36:36;;;;;;;5.75;5.35;;;;;;;33.77;58.33;100166.25;5070306;28;66562;-38
2022/06/28 09:39:15;;;;;;;5.82;5.38;;;;;;;33.82;58.37;100179.06;5082594;28;69376;-38
2022/06/28 09:41:52;;;;;;;8.68;5.05;;;;;;;34.18;58.67;100231.13;5070923;28;66009;-38
2022/06/28 09:44:54;;;;;;;5.78;5.25;;;;;;;33.83;59.55;100177.19;5074354;28;70015;-36
2022/06/28 09:47:24;;;;;;;13.38;5.78;;;;;;;34.16;59.06;100234.13;5076457;28;66819;-38
2022/06/28 09:50:20;;;;;;;6.70;5.30;;;;;;;34.18;59.68;100242.84;5081657;28;70649;-38
2022/06/28 09:52:52;;;;;;;6.32;5.75;;;;;;;34.20;59.63;100240.69;5050334;28;65858;-37
2022/06/28 09:55:26;;;;;;;6.88;5.47;;;;;;;34.23;59.90;100242.06;5073399;28;70298;-36
2022/06/28 09:57:58;;;;;;;8.23;5.68;;;;;;;34.23;59.68;100240.16;5079769;28;65657;-37
2022/06/28 10:00:30;;;;;;;6.50;5.90;;;;;;;34.21;59.16;100231.47;5073263;28;70574;-37
2022/06/28 10:03:02;;;;;;;5.82;5.05;;;;;;;34.13;59.39;100229.22;5070747;28;66024;-37
2022/06/28 10:05:34;;;;;;;7.40;5.15;;;;;;;34.20;59.76;100239.88;5074849;28;70459;-37
2022/06/28 10:08:06;;;;;;;5.32;4.93;;;;;;;34.23;60.07;100242.91;5077698;28;65264;-37
2022/06/28 10:10:40;;;;;;;6.45;5.10;;;;;;;34.24;59.76;100244.56;5071844;28;70071;-37
2022/06/28 10:16:54;;;;;;;4.95;4.55;;;;;;;34.09;60.75;100244.41;5064750;28;69253;-39
2022/06/28 10:19:27;;;;;;;6.05;5.45;;;;;;;33.89;60.40;100184.31;5049448;28;66143;-37
2022/06/28 10:21:58;;;;;;;6.10;5.53;;;;;;;34.22;59.90;100227.66;5068321;28;69283;-37
2022/06/28 10:24:54;;;;;;;5.90;4.72;;;;;;;34.14;60.80;100235.47;5073795;28;66672;-37
2022/06/28 10:27:26;;;;;;;8.55;4.78;;;;;;;34.23;60.14;100247.53;5074545;28;69558;-36
2022/06/28 10:30:00;;;;;;;5.20;4.80;;;;;;;34.21;60.41;100247.78;5077005;28;66006;-37
2022/06/28 10:32:52;;;;;;;7.65;4.78;;;;;;;33.96;60.85;100233.88;5077741;28;69640;-37
2022/06/28 10:35:29;;;;;;;7.40;4.93;;;;;;;34.18;60.77;100270.06;5069377;28;65334;-37
2022/06/28 10:38:10;;;;;;;6.60;4.65;;;;;;;34.19;60.44;100271.72;5077076;28;70318;-37
2022/06/28 10:40:50;;;;;;;9.35;4.65;;;;;;;34.18;61.64;100280.94;5078805;27;66862;-35
2022/06/28 10:43:26;;;;;;;5.55;4.43;;;;;;;34.19;61.56;100268.19;5078899;28;70314;-36
2022/06/28 10:46:02;;;;;;;6.72;4.60;;;;;;;34.19;61.80;100276.34;5072488;28;66181;-36
2022/06/28 10:48:53;;;;;;;5.43;4.40;;;;;;;33.81;62.16;100220.97;5081175;28;69733;-36
2022/06/28 10:51:24;;;;;;;9.40;4.50;;;;;;;34.18;61.28;100253.72;5064804;28;66076;-36
2022/06/28 10:54:01;;;;;;;6.22;4.55;;;;;;;34.19;61.05;100257.31;5074907;28;69262;-36
2022/06/28 10:56:44;;;;;;;7.95;4.63;;;;;;;33.91;60.69;100220.25;5065285;28;67317;-36
2022/06/28 10:59:19;;;;;;;4.82;4.43;;;;;;;34.20;60.36;100273.34;5078435;28;70562;-36
2022/06/28 11:01:50;;;;;;;8.32;4.72;;;;;;;34.21;59.98;100274.16;5075027;28;66965;-36
2022/06/28 11:04:22;;;;;;;5.07;4.50;;;;;;;34.20;59.85;100286.97;5072915;28;70492;-37
2022/06/28 11:07:25;;;;;;;6.63;4.43;;;;;;;33.98;60.17;100276.09;5056037;28;65405;-36
2022/06/28 11:09:59;;;;;;;5.53;5.00;;;;;;;34.21;59.63;100313.13;5070400;28;71242;-36
2022/06/28 11:12:30;;;;;;;5.80;4.72;;;;;;;34.22;60.09;100314.75;5052884;28;65870;-35
2022/06/28 11:15:08;;;;;;;10.00;5.57;;;;;;;34.17;59.82;100314.69;5068059;28;70058;-36
2022/06/28 11:17:43;;;;;;;6.95;6.07;;;;;;;34.23;60.13;100321.84;5064357;28;65694;-35
2022/06/28 11:20:20;;;;;;;9.30;6.90;;;;;;;34.19;60.22;100328.06;5062323;28;69571;-36
2022/06/28 11:22:52;;;;;;;9.95;7.03;;;;;;;34.19;60.33;100320.72;5076680;28;65216;-38
2022/06/28 11:25:23;;;;;;;;;;;;;;;33.85;61.37;100332.81;5070818;28;70116;-38
2022/06/28 11:27:57;;;;;;;15.15;6.53;;;;;;;33.81;60.85;100286.25;5070566;28;66433;-38
2022/06/28 11:30:29;;;;;;;10.35;7.05;;;;;;;34.15;60.36;100354.16;5066466;28;70352;-37
2022/06/28 11:33:00;;;;;;;13.40;7.15;;;;;;;34.13;60.50;100343.53;5074080;28;66193;-39
2022/06/28 11:35:32;;;;;;;13.60;6.60;;;;;;;34.11;60.85;100356.56;5072641;28;69818;-37
2022/06/28 11:38:09;;;;;;;9.35;7.40;;;;;;;34.10;60.76;100364.97;5073246;28;66103;-38
2022/06/28 11:40:42;;;;;;;13.20;6.97;;;;;;;34.10;60.66;100364.97;5077776;28;69584;-37
2022/06/28 11:43:15;;;;;;;9.93;7.22;;;;;;;34.07;60.68;100363.56;5053024;28;66235;-37
2022/06/28 11:45:50;;;;;;;15.60;7.63;;;;;;;33.89;60.89;100336.69;5069279;28;70788;-38
2022/06/28 11:48:33;;;;;;;13.05;8.43;;;;;;;34.02;61.29;100367.03;5072940;28;66468;-38
2022/06/28 11:51:04;;;;;;;8.75;7.95;;;;;;;34.02;60.97;100352.63;5069904;27;70464;-39
2022/06/28 11:53:45;;;;;;;8.93;8.02;;;;;;;34.04;61.39;100353.16;5074024;28;66108;-37
2022/06/28 11:56:16;;;;;;;11.02;8.40;;;;;;;34.04;61.00;100361.34;5057996;28;69974;-37
2022/06/28 11:58:47;;;;;;;9.75;8.70;;;;;;;34.01;60.88;100356.41;5079488;28;66477;-37
2022/06/28 12:01:21;;;;;;;11.30;8.53;;;;;;;34.04;61.41;100361.34;5077278;28;69654;-38
2022/06/28 12:03:58;;;;;;;11.85;9.43;;;;;;;33.75;61.15;100314.47;5077312;28;66892;-37
2022/06/28 12:06:31;;;;;;;14.27;9.70;;;;;;;33.61;61.94;100308.59;5060187;28;69954;-38